sensor_id;sensor_type;location;lat;lon;timestamp;pressure;altitude;pressure_sealevel;temperature;humidity
21658;BME280;10990;48.174;9.782;2024-02-23T00:02:16;92574.56;;;6.72;100.00
21658;BME280;10990;48.174;9.782;2024-02-23T00:13:50;91985.28;;;6.61;100.00
21658;BME280;10990;48.174;9.782;2024-02-23T00:19:19;92025.94;;;6.52;100.00
21658;BME280;10990;48.174;9.782;2024-02-23T00:25:02;92028.81;;;6.50;100.00
21658;BME280;10990;48.174;9.782;2024-02-23T00:30:32;92064.72;;;6.50;100.00
21658;BME280;10990;48.174;9.782;2024-02-23T00:36:01;92093.22;;;6.46;100.00
21658;BME280;10990;48.174;9.782;2024-02-23T00:41:28;92098.91;;;6.43;100.00
21658;BME280;10990;48.174;9.782;2024-02-23T00:46:59;92111.84;;;6.38;100.00
21658;BME280;10990;48.174;9.782;2024-02-23T00:52:28;92122.56;;;6.37;100.00
21658;BME280;10990;48.174;9.782;2024-02-23T00:57:56;92149.81;;;6.36;100.00
21658;BME280;10990;48.174;9.782;2024-02-23T01:03:26;92152.69;;;6.27;100.00
21658;BME280;10990;48.174;9.782;2024-02-23T01:14:59;92184.66;;;6.04;100.00
21658;BME280;10990;48.174;9.782;2024-02-23T01:20:29;92199.63;;;5.97;100.00
21658;BME280;10990;48.174;9.782;2024-02-23T01:22:57;92190.75;;;5.98;100.00
21658;BME280;10990;48.174;9.782;2024-02-23T01:25:23;92202.84;;;5.93;100.00
21658;BME280;10990;48.174;9.782;2024-02-23T01:27:48;92194.97;;;5.93;100.00
21658;BME280;10990;48.174;9.782;2024-02-23T01:30:15;92210.13;;;5.84;100.00
21658;BME280;10990;48.174;9.782;2024-02-23T01:32:41;92213.00;;;5.69;100.00
21658;BME280;10990;48.174;9.782;2024-02-23T01:35:08;92228.53;;;5.64;100.00
21658;BME280;10990;48.174;9.782;2024-02-23T01:37:36;92220.66;;;5.57;100.00
21658;BME280;10990;48.174;9.782;2024-02-23T01:40:03;92230.75;;;5.54;100.00
21658;BME280;10990;48.174;9.782;2024-02-23T01:42:29;92272.47;;;5.09;100.00
21658;BME280;10990;48.174;9.782;2024-02-23T01:44:55;92276.88;;;4.88;100.00
21658;BME280;10990;48.174;9.782;2024-02-23T01:47:21;92289.50;;;4.65;100.00
21658;BME280;10990;48.174;9.782;2024-02-23T01:49:47;92291.50;;;4.56;100.00
21658;BME280;10990;48.174;9.782;2024-02-23T01:52:13;92292.88;;;4.52;100.00
21658;BME280;10990;48.174;9.782;2024-02-23T01:54:42;92276.34;;;4.45;100.00
21658;BME280;10990;48.174;9.782;2024-02-23T01:57:09;92262.72;;;4.69;100.00
21658;BME280;10990;48.174;9.782;2024-02-23T01:59:35;92242.00;;;4.75;100.00
21658;BME280;10990;48.174;9.782;2024-02-23T02:02:02;92251.44;;;4.76;100.00
21658;BME280;10990;48.174;9.782;2024-02-23T02:04:28;92250.88;;;4.74;100.00
21658;BME280;10990;48.174;9.782;2024-02-23T02:06:54;92240.78;;;4.77;100.00
21658;BME280;10990;48.174;9.782;2024-02-23T02:09:20;92237.56;;;4.75;100.00
21658;BME280;10990;48.174;9.782;2024-02-23T02:11:50;92242.84;;;4.82;100.00
21658;BME280;10990;48.174;9.782;2024-02-23T02:14:16;92235.97;;;4.81;100.00
21658;BME280;10990;48.174;9.782;2024-02-23T02:16:42;92241.81;;;4.76;100.00
21658;BME280;10990;48.174;9.782;2024-02-23T02:19:09;92248.25;;;4.74;100.00
21658;BME280;10990;48.174;9.782;2024-02-23T02:21:35;92251.47;;;4.82;100.00
21658;BME280;10990;48.174;9.782;2024-02-23T02:24:01;92256.72;;;4.82;100.00
21658;BME280;10990;48.174;9.782;2024-02-23T02:26:27;92263.16;;;4.86;100.00
21658;BME280;10990;48.174;9.782;2024-02-23T02:28:56;92249.47;;;4.84;100.00
21658;BME280;10990;48.174;9.782;2024-02-23T02:31:22;92248.47;;;4.92;100.00
21658;BME280;10990;48.174;9.782;2024-02-23T02:33:48;92238.59;;;4.94;100.00
21658;BME280;10990;48.174;9.782;2024-02-23T02:36:14;92250.47;;;4.83;100.00
21658;BME280;10990;48.174;9.782;2024-02-23T02:38:40;92242.63;;;4.97;100.00
21658;BME280;10990;48.174;9.782;2024-02-23T02:41:06;92235.78;;;4.89;100.00
21658;BME280;10990;48.174;9.782;2024-02-23T02:43:32;92235.59;;;4.90;100.00
21658;BME280;10990;48.174;9.782;2024-02-23T02:46:01;92234.16;;;4.94;100.00
21658;BME280;10990;48.174;9.782;2024-02-23T02:48:26;92232.56;;;4.93;100.00
21658;BME280;10990;48.174;9.782;2024-02-23T02:50:52;92239.00;;;4.91;100.00
21658;BME280;10990;48.174;9.782;2024-02-23T02:53:18;92232.16;;;4.90;100.00
21658;BME280;10990;48.174;9.782;2024-02-23T02:55:45;92234.19;;;4.88;100.00
21658;BME280;10990;48.174;9.782;2024-02-23T02:58:11;92248.47;;;4.79;100.00
21658;BME280;10990;48.174;9.782;2024-02-23T03:00:37;92259.91;;;4.78;100.00
21658;BME280;10990;48.174;9.782;2024-02-23T03:03:06;92258.28;;;4.70;100.00
21658;BME280;10990;48.174;9.782;2024-02-23T03:05:32;92262.94;;;4.68;100.00
21658;BME280;10990;48.174;9.782;2024-02-23T03:07:59;92258.28;;;4.63;100.00
21658;BME280;10990;48.174;9.782;2024-02-23T03:10:25;92259.28;;;4.62;100.00
21658;BME280;10990;48.174;9.782;2024-02-23T03:12:51;92261.28;;;4.54;100.00
21658;BME280;10990;48.174;9.782;2024-02-23T03:15:17;92262.88;;;4.55;100.00
21658;BME280;10990;48.174;9.782;2024-02-23T03:17:43;92252.81;;;4.45;100.00
21658;BME280;10990;48.174;9.782;2024-02-23T03:20:11;92242.13;;;4.53;100.00
21658;BME280;10990;48.174;9.782;2024-02-23T03:22:38;92256.00;;;4.40;100.00
21658;BME280;10990;48.174;9.782;2024-02-23T03:25:05;92259.19;;;4.36;100.00
21658;BME280;10990;48.174;9.782;2024-02-23T03:27:31;92256.00;;;4.34;100.00
21658;BME280;10990;48.174;9.782;2024-02-23T03:29:57;92254.19;;;4.41;100.00
21658;BME280;10990;48.174;9.782;2024-02-23T03:32:22;92259.19;;;4.36;100.00
21658;BME280;10990;48.174;9.782;2024-02-23T03:34:48;92276.47;;;4.30;100.00
21658;BME280;10990;48.174;9.782;2024-02-23T03:37:17;92280.50;;;4.26;100.00
21658;BME280;10990;48.174;9.782;2024-02-23T03:39:43;92272.09;;;4.37;100.00
21658;BME280;10990;48.174;9.782;2024-02-23T03:42:09;92275.53;;;4.44;100.00
21658;BME280;10990;48.174;9.782;2024-02-23T03:44:35;92270.09;;;4.39;100.00
21658;BME280;10990;48.174;9.782;2024-02-23T03:47:01;92274.31;;;4.47;100.00
21658;BME280;10990;48.174;9.782;2024-02-23T03:49:27;92267.69;;;4.44;100.00
21658;BME280;10990;48.174;9.782;2024-02-23T03:51:53;92273.50;;;4.40;100.00
21658;BME280;10990;48.174;9.782;2024-02-23T03:54:22;92290.19;;;4.39;100.00
21658;BME280;10990;48.174;9.782;2024-02-23T03:56:48;92295.25;;;4.40;100.00
21658;BME280;10990;48.174;9.782;2024-02-23T03:59:13;92300.06;;;4.37;100.00
21658;BME280;10990;48.174;9.782;2024-02-23T04:01:39;92301.28;;;4.41;100.00
21658;BME280;10990;48.174;9.782;2024-02-23T04:04:05;92302.69;;;4.43;100.00
21658;BME280;10990;48.174;9.782;2024-02-23T04:06:32;92307.13;;;4.43;100.00
21658;BME280;10990;48.174;9.782;2024-02-23T04:08:58;92304.91;;;4.46;100.00
21658;BME280;10990;48.174;9.782;2024-02-23T04:11:27;92304.91;;;4.46;100.00
21658;BME280;10990;48.174;9.782;2024-02-23T04:13:53;92308.56;;;4.52;100.00
21658;BME280;10990;48.174;9.782;2024-02-23T04:16:22;92315.38;;;4.46;100.00
21658;BME280;10990;48.174;9.782;2024-02-23T04:18:48;92316.06;;;4.62;100.00
21658;BME280;10990;48.174;9.782;2024-02-23T04:21:15;92311.41;;;4.57;100.00
21658;BME280;10990;48.174;9.782;2024-02-23T04:23:41;92320.06;;;4.58;100.00
21658;BME280;10990;48.174;9.782;2024-02-23T04:26:08;92319.88;;;4.59;100.00
21658;BME280;10990;48.174;9.782;2024-02-23T04:28:38;92326.06;;;4.45;100.00
21658;BME280;10990;48.174;9.782;2024-02-23T04:31:04;92333.13;;;4.58;100.00
21658;BME280;10990;48.174;9.782;2024-02-23T04:33:30;92326.88;;;4.52;100.00
21658;BME280;10990;48.174;9.782;2024-02-23T04:35:56;92316.00;;;4.48;100.00
21658;BME280;10990;48.174;9.782;2024-02-23T04:38:22;92315.59;;;4.45;100.00
21658;BME280;10990;48.174;9.782;2024-02-23T04:40:48;92328.44;;;4.40;100.00
21658;BME280;10990;48.174;9.782;2024-02-23T04:43:14;92331.28;;;4.45;100.00
21658;BME280;10990;48.174;9.782;2024-02-23T04:45:43;92323.16;;;4.33;100.00
21658;BME280;10990;48.174;9.782;2024-02-23T04:48:09;92314.94;;;4.36;100.00
21658;BME280;10990;48.174;9.782;2024-02-23T04:50:35;92316.56;;;4.37;100.00
21658;BME280;10990;48.174;9.782;2024-02-23T04:53:02;92311.94;;;4.39;100.00
21658;BME280;10990;48.174;9.782;2024-02-23T04:55:28;92319.34;;;4.36;100.00
21658;BME280;10990;48.174;9.782;2024-02-23T04:57:54;92316.78;;;4.42;100.00
21658;BME280;10990;48.174;9.782;2024-02-23T05:00:20;92306.03;;;4.31;100.00
21658;BME280;10990;48.174;9.782;2024-02-23T05:02:49;92311.91;;;4.33;100.00
21658;BME280;10990;48.174;9.782;2024-02-23T05:05:15;92320.56;;;4.33;100.00
21658;BME280;10990;48.174;9.782;2024-02-23T05:07:41;92304.41;;;4.23;100.00
21658;BME280;10990;48.174;9.782;2024-02-23T05:10:08;92306.19;;;4.16;100.00
21658;BME280;10990;48.174;9.782;2024-02-23T05:12:34;92294.94;;;4.15;100.00
21658;BME280;10990;48.174;9.782;2024-02-23T05:15:00;92296.50;;;4.10;100.00
21658;BME280;10990;48.174;9.782;2024-02-23T05:17:26;92299.13;;;4.16;100.00
21658;BME280;10990;48.174;9.782;2024-02-23T05:20:11;92308.19;;;4.14;100.00
21658;BME280;10990;48.174;9.782;2024-02-23T05:34:39;92343.94;;;4.00;100.00
21658;BME280;10990;48.174;9.782;2024-02-23T05:43:08;92329.59;;;3.96;100.00
21658;BME280;10990;48.174;9.782;2024-02-23T05:45:34;92337.88;;;3.99;100.00
21658;BME280;10990;48.174;9.782;2024-02-23T05:51:11;92339.13;;;4.03;100.00
21658;BME280;10990;48.174;9.782;2024-02-23T05:53:51;92346.31;;;3.95;100.00
21658;BME280;10990;48.174;9.782;2024-02-23T05:56:17;92345.31;;;4.02;100.00
21658;BME280;10990;48.174;9.782;2024-02-23T05:58:48;92341.66;;;3.97;100.00
21658;BME280;10990;48.174;9.782;2024-02-23T06:01:38;92350.38;;;4.04;100.00
21658;BME280;10990;48.174;9.782;2024-02-23T06:04:04;92352.84;;;4.12;100.00
21658;BME280;10990;48.174;9.782;2024-02-23T06:15:39;92377.94;;;4.07;100.00
21658;BME280;10990;48.174;9.782;2024-02-23T06:24:10;92369.91;;;4.08;100.00
21658;BME280;10990;48.174;9.782;2024-02-23T06:29:47;92372.47;;;4.01;100.00
21658;BME280;10990;48.174;9.782;2024-02-23T06:32:25;92366.28;;;4.09;100.00
21658;BME280;10990;48.174;9.782;2024-02-23T06:37:53;92378.13;;;4.05;100.00
21658;BME280;10990;48.174;9.782;2024-02-23T06:40:19;92374.19;;;4.16;100.00
21658;BME280;10990;48.174;9.782;2024-02-23T06:42:45;92383.84;;;4.15;100.00
21658;BME280;10990;48.174;9.782;2024-02-23T06:45:11;92393.66;;;4.13;100.00
21658;BME280;10990;48.174;9.782;2024-02-23T06:47:39;92408.94;;;4.10;100.00
21658;BME280;10990;48.174;9.782;2024-02-23T06:50:07;92421.06;;;4.17;100.00
21658;BME280;10990;48.174;9.782;2024-02-23T06:52:33;92434.19;;;4.24;100.00
21658;BME280;10990;48.174;9.782;2024-02-23T06:54:59;92437.16;;;4.14;100.00
21658;BME280;10990;48.174;9.782;2024-02-23T06:57:25;92448.69;;;4.26;100.00
21658;BME280;10990;48.174;9.782;2024-02-23T06:59:51;92455.63;;;4.13;100.00
21658;BME280;10990;48.174;9.782;2024-02-23T07:02:17;92454.84;;;4.19;100.00
21658;BME280;10990;48.174;9.782;2024-02-23T07:04:45;92456.66;;;4.18;100.00
21658;BME280;10990;48.174;9.782;2024-02-23T07:07:11;92459.91;;;4.20;100.00
21658;BME280;10990;48.174;9.782;2024-02-23T07:09:37;92470.00;;;4.23;100.00
21658;BME280;10990;48.174;9.782;2024-02-23T07:12:04;92490.50;;;4.20;100.00
21658;BME280;10990;48.174;9.782;2024-02-23T07:14:30;92499.78;;;4.22;100.00
21658;BME280;10990;48.174;9.782;2024-02-23T07:16:56;92509.66;;;4.27;100.00
21658;BME280;10990;48.174;9.782;2024-02-23T07:19:22;92520.91;;;4.27;100.00
21658;BME280;10990;48.174;9.782;2024-02-23T07:21:51;92541.78;;;4.21;100.00
21658;BME280;10990;48.174;9.782;2024-02-23T07:24:17;92554.50;;;4.24;100.00
21658;BME280;10990;48.174;9.782;2024-02-23T07:26:43;92575.53;;;4.16;100.00
21658;BME280;10990;48.174;9.782;2024-02-23T07:29:09;92581.34;;;4.11;100.00
21658;BME280;10990;48.174;9.782;2024-02-23T07:31:34;92580.72;;;4.09;100.00
21658;BME280;10990;48.174;9.782;2024-02-23T07:34:00;92580.13;;;4.14;100.00
21658;BME280;10990;48.174;9.782;2024-02-23T07:36:27;92577.78;;;4.19;100.00
21658;BME280;10990;48.174;9.782;2024-02-23T07:38:56;92581.66;;;4.23;100.00
21658;BME280;10990;48.174;9.782;2024-02-23T07:41:21;92579.47;;;4.26;100.00
21658;BME280;10990;48.174;9.782;2024-02-23T07:43:47;92586.75;;;4.31;100.00
21658;BME280;10990;48.174;9.782;2024-02-23T07:46:13;92620.31;;;4.27;100.00
21658;BME280;10990;48.174;9.782;2024-02-23T07:48:39;92623.56;;;4.30;100.00
21658;BME280;10990;48.174;9.782;2024-02-23T07:51:05;92640.63;;;4.25;100.00
21658;BME280;10990;48.174;9.782;2024-02-23T07:53:31;92662.00;;;4.29;100.00
21658;BME280;10990;48.174;9.782;2024-02-23T07:56:00;92670.63;;;4.30;100.00
21658;BME280;10990;48.174;9.782;2024-02-23T07:58:26;92685.53;;;4.29;100.00
21658;BME280;10990;48.174;9.782;2024-02-23T08:00:52;92715.31;;;4.13;100.00
21658;BME280;10990;48.174;9.782;2024-02-23T08:03:18;92707.81;;;4.25;100.00
21658;BME280;10990;48.174;9.782;2024-02-23T08:05:44;92722.25;;;4.21;100.00
21658;BME280;10990;48.174;9.782;2024-02-23T08:08:10;92738.84;;;4.13;100.00
21658;BME280;10990;48.174;9.782;2024-02-23T08:10:36;92734.34;;;4.22;100.00
21658;BME280;10990;48.174;9.782;2024-02-23T08:13:04;92757.50;;;4.25;100.00
21658;BME280;10990;48.174;9.782;2024-02-23T08:15:31;92776.88;;;4.31;100.00
21658;BME280;10990;48.174;9.782;2024-02-23T08:17:57;92800.56;;;4.22;100.00
21658;BME280;10990;48.174;9.782;2024-02-23T08:20:23;92831.47;;;4.19;100.00
21658;BME280;10990;48.174;9.782;2024-02-23T08:22:49;92900.28;;;4.19;100.00
21658;BME280;10990;48.174;9.782;2024-02-23T08:25:15;92909.84;;;4.12;100.00
21658;BME280;10990;48.174;9.782;2024-02-23T08:27:41;92927.16;;;4.13;100.00
21658;BME280;10990;48.174;9.782;2024-02-23T08:30:10;92934.66;;;4.16;100.00
21658;BME280;10990;48.174;9.782;2024-02-23T08:32:39;92938.28;;;4.30;100.00
21658;BME280;10990;48.174;9.782;2024-02-23T08:35:06;92965.78;;;4.26;100.00
21658;BME280;10990;48.174;9.782;2024-02-23T08:37:32;92992.13;;;4.24;100.00
21658;BME280;10990;48.174;9.782;2024-02-23T08:39:58;92996.72;;;4.22;100.00
21658;BME280;10990;48.174;9.782;2024-02-23T08:42:24;92997.94;;;4.35;100.00
21658;BME280;10990;48.174;9.782;2024-02-23T08:44:50;93018.75;;;4.28;100.00
21658;BME280;10990;48.174;9.782;2024-02-23T08:47:19;93027.16;;;4.38;100.00
21658;BME280;10990;48.174;9.782;2024-02-23T08:49:44;93023.38;;;4.41;100.00
21658;BME280;10990;48.174;9.782;2024-02-23T08:52:10;93055.03;;;4.31;100.00
21658;BME280;10990;48.174;9.782;2024-02-23T08:54:36;93070.53;;;4.33;100.00
21658;BME280;10990;48.174;9.782;2024-02-23T08:57:03;93094.72;;;4.35;100.00
21658;BME280;10990;48.174;9.782;2024-02-23T08:59:29;93101.72;;;4.42;100.00
21658;BME280;10990;48.174;9.782;2024-02-23T09:02:00;93110.22;;;4.36;100.00
21658;BME280;10990;48.174;9.782;2024-02-23T09:04:29;93124.84;;;4.54;100.00
21658;BME280;10990;48.174;9.782;2024-02-23T09:06:55;93119.25;;;4.57;100.00
21658;BME280;10990;48.174;9.782;2024-02-23T09:09:21;93154.56;;;4.38;100.00
21658;BME280;10990;48.174;9.782;2024-02-23T09:11:48;93168.59;;;4.45;100.00
21658;BME280;10990;48.174;9.782;2024-02-23T09:14:15;93190.03;;;4.40;100.00
21658;BME280;10990;48.174;9.782;2024-02-23T09:16:41;93207.19;;;4.43;100.00
21658;BME280;10990;48.174;9.782;2024-02-23T09:19:07;93216.16;;;4.48;100.00
21658;BME280;10990;48.174;9.782;2024-02-23T09:21:35;93227.78;;;4.46;100.00
21658;BME280;10990;48.174;9.782;2024-02-23T09:24:01;93253.13;;;4.45;100.00
21658;BME280;10990;48.174;9.782;2024-02-23T09:26:27;93257.50;;;4.53;100.00
21658;BME280;10990;48.174;9.782;2024-02-23T09:28:53;93257.16;;;4.56;100.00
21658;BME280;10990;48.174;9.782;2024-02-23T09:31:19;93267.69;;;4.48;100.00
21658;BME280;10990;48.174;9.782;2024-02-23T09:33:45;93293.84;;;4.48;100.00
21658;BME280;10990;48.174;9.782;2024-02-23T09:36:11;93305.47;;;4.45;100.00
21658;BME280;10990;48.174;9.782;2024-02-23T09:38:40;93318.06;;;4.42;100.00
21658;BME280;10990;48.174;9.782;2024-02-23T09:41:11;93331.47;;;4.47;100.00
21658;BME280;10990;48.174;9.782;2024-02-23T09:43:42;93340.94;;;4.56;100.00
21658;BME280;10990;48.174;9.782;2024-02-23T09:46:10;93341.22;;;4.61;100.00
21658;BME280;10990;48.174;9.782;2024-02-23T09:48:37;93352.34;;;4.63;100.00
21658;BME280;10990;48.174;9.782;2024-02-23T09:51:04;93370.88;;;4.54;100.00
21658;BME280;10990;48.174;9.782;2024-02-23T09:53:31;93378.50;;;4.63;100.00
21658;BME280;10990;48.174;9.782;2024-02-23T09:56:01;93380.59;;;4.76;100.00
21658;BME280;10990;48.174;9.782;2024-02-23T09:58:29;93390.56;;;4.72;100.00
21658;BME280;10990;48.174;9.782;2024-02-23T10:00:58;93391.56;;;4.71;100.00
21658;BME280;10990;48.174;9.782;2024-02-23T10:03:24;93404.16;;;4.76;100.00
21658;BME280;10990;48.174;9.782;2024-02-23T10:05:51;93402.66;;;4.82;100.00
21658;BME280;10990;48.174;9.782;2024-02-23T10:08:17;93418.88;;;4.77;100.00
21658;BME280;10990;48.174;9.782;2024-02-23T10:10:45;93417.53;;;4.81;100.00
21658;BME280;10990;48.174;9.782;2024-02-23T10:13:18;93430.47;;;4.83;100.00
21658;BME280;10990;48.174;9.782;2024-02-23T10:15:44;93421.28;;;4.87;100.00
21658;BME280;10990;48.174;9.782;2024-02-23T10:18:10;93414.44;;;4.86;100.00
21658;BME280;10990;48.174;9.782;2024-02-23T10:20:36;93413.16;;;4.82;100.00
21658;BME280;10990;48.174;9.782;2024-02-23T10:23:02;93418.41;;;4.74;100.00
21658;BME280;10990;48.174;9.782;2024-02-23T10:25:28;93419.69;;;4.78;100.00
21658;BME280;10990;48.174;9.782;2024-02-23T10:27:54;93430.19;;;4.69;100.00
21658;BME280;10990;48.174;9.782;2024-02-23T10:30:23;93437.56;;;4.74;100.00
21658;BME280;10990;48.174;9.782;2024-02-23T10:32:50;93438.53;;;4.73;100.00
21658;BME280;10990;48.174;9.782;2024-02-23T10:35:19;93440.63;;;4.78;100.00
21658;BME280;10990;48.174;9.782;2024-02-23T10:37:49;93443.44;;;4.76;100.00
21658;BME280;10990;48.174;9.782;2024-02-23T10:40:16;93445.75;;;4.71;100.00
21658;BME280;10990;48.174;9.782;2024-02-23T10:42:44;93431.47;;;4.82;100.00
21658;BME280;10990;48.174;9.782;2024-02-23T10:45:10;93439.81;;;4.77;100.00
21658;BME280;10990;48.174;9.782;2024-02-23T10:47:39;93440.16;;;4.74;100.00
21658;BME280;10990;48.174;9.782;2024-02-23T10:50:06;93428.50;;;4.85;100.00
21658;BME280;10990;48.174;9.782;2024-02-23T10:52:33;93409.97;;;4.94;100.00
21658;BME280;10990;48.174;9.782;2024-02-23T10:55:01;93407.00;;;4.98;100.00
21658;BME280;10990;48.174;9.782;2024-02-23T10:57:27;93389.47;;;4.98;100.00
21658;BME280;10990;48.174;9.782;2024-02-23T10:59:53;93388.53;;;4.91;100.00
21658;BME280;10990;48.174;9.782;2024-02-23T11:02:20;93388.03;;;4.96;100.00
21658;BME280;10990;48.174;9.782;2024-02-23T11:04:50;93367.56;;;4.99;100.00
21658;BME280;10990;48.174;9.782;2024-02-23T11:07:19;93360.81;;;5.05;100.00
21658;BME280;10990;48.174;9.782;2024-02-23T11:09:49;93348.63;;;5.12;100.00
21658;BME280;10990;48.174;9.782;2024-02-23T11:12:22;93354.41;;;5.07;100.00
21658;BME280;10990;48.174;9.782;2024-02-23T11:14:48;93347.47;;;5.14;100.00
21658;BME280;10990;48.174;9.782;2024-02-23T11:17:18;93350.78;;;5.08;100.00
21658;BME280;10990;48.174;9.782;2024-02-23T11:19:46;93342.44;;;5.13;100.00
21658;BME280;10990;48.174;9.782;2024-02-23T11:22:23;93343.41;;;5.12;100.00
21658;BME280;10990;48.174;9.782;2024-02-23T11:24:50;93338.09;;;5.20;100.00
21658;BME280;10990;48.174;9.782;2024-02-23T11:27:16;93344.56;;;5.09;100.00
21658;BME280;10990;48.174;9.782;2024-02-23T11:29:42;93342.78;;;5.10;100.00
21658;BME280;10990;48.174;9.782;2024-02-23T11:32:13;93343.41;;;5.12;100.00
21658;BME280;10990;48.174;9.782;2024-02-23T11:34:39;93350.28;;;5.13;100.00
21658;BME280;10990;48.174;9.782;2024-02-23T11:37:09;93346.78;;;5.21;100.00
21658;BME280;10990;48.174;9.782;2024-02-23T11:39:38;93329.47;;;5.34;100.00
21658;BME280;10990;48.174;9.782;2024-02-23T11:42:06;93315.16;;;5.45;100.00
21658;BME280;10990;48.174;9.782;2024-02-23T11:44:32;93327.19;;;5.54;100.00
21658;BME280;10990;48.174;9.782;2024-02-23T11:46:58;93337.94;;;5.45;100.00
21658;BME280;10990;48.174;9.782;2024-02-23T11:49:27;93338.50;;;5.32;100.00
21658;BME280;10990;48.174;9.782;2024-02-23T11:51:53;93347.84;;;5.34;100.00
21658;BME280;10990;48.174;9.782;2024-02-23T11:54:19;93338.97;;;5.58;100.00
21658;BME280;10990;48.174;9.782;2024-02-23T11:56:48;93343.78;;;5.55;100.00
21658;BME280;10990;48.174;9.782;2024-02-23T11:59:14;93348.88;;;5.48;100.00
21658;BME280;10990;48.174;9.782;2024-02-23T12:01:40;93355.59;;;5.51;100.00
21658;BME280;10990;48.174;9.782;2024-02-23T12:04:06;93348.66;;;5.58;100.00
21658;BME280;10990;48.174;9.782;2024-02-23T12:06:33;93350.28;;;5.59;100.00
21658;BME280;10990;48.174;9.782;2024-02-23T12:08:59;93355.69;;;5.57;100.00
21658;BME280;10990;48.174;9.782;2024-02-23T12:11:26;93352.81;;;5.52;100.00
21658;BME280;10990;48.174;9.782;2024-02-23T12:13:55;93357.38;;;5.50;100.00
21658;BME280;10990;48.174;9.782;2024-02-23T12:16:24;93358.19;;;5.51;100.00
21658;BME280;10990;48.174;9.782;2024-02-23T12:18:54;93357.28;;;5.67;100.00
21658;BME280;10990;48.174;9.782;2024-02-23T12:21:20;93353.47;;;5.46;100.00
21658;BME280;10990;48.174;9.782;2024-02-23T12:23:49;93360.16;;;5.49;100.00
21658;BME280;10990;48.174;9.782;2024-02-23T12:26:16;93357.28;;;5.44;100.00
21658;BME280;10990;48.174;9.782;2024-02-23T12:28:43;93342.81;;;5.48;100.00
21658;BME280;10990;48.174;9.782;2024-02-23T12:31:11;93332.28;;;5.56;100.00
21658;BME280;10990;48.174;9.782;2024-02-23T12:33:38;93326.59;;;5.52;100.00
21658;BME280;10990;48.174;9.782;2024-02-23T12:36:05;93314.94;;;5.55;100.00
21658;BME280;10990;48.174;9.782;2024-02-23T12:38:31;93302.63;;;5.55;100.00
21658;BME280;10990;48.174;9.782;2024-02-23T12:40:58;93293.06;;;5.62;100.00
21658;BME280;10990;48.174;9.782;2024-02-23T12:43:24;93285.91;;;5.56;100.00
21658;BME280;10990;48.174;9.782;2024-02-23T12:45:50;93264.69;;;5.66;100.00
21658;BME280;10990;48.174;9.782;2024-02-23T12:48:19;93265.22;;;5.76;100.00
21658;BME280;10990;48.174;9.782;2024-02-23T12:50:45;93260.53;;;5.72;100.00
21658;BME280;10990;48.174;9.782;2024-02-23T12:53:30;93258.72;;;5.72;100.00
21658;BME280;10990;48.174;9.782;2024-02-23T12:55:55;93258.00;;;5.78;100.00
21658;BME280;10990;48.174;9.782;2024-02-23T12:58:21;93263.16;;;5.87;100.00
21658;BME280;10990;48.174;9.782;2024-02-23T13:00:47;93275.25;;;5.73;100.00
21658;BME280;10990;48.174;9.782;2024-02-23T13:03:13;93283.50;;;5.70;100.00
21658;BME280;10990;48.174;9.782;2024-02-23T13:05:42;93293.63;;;5.73;100.00
21658;BME280;10990;48.174;9.782;2024-02-23T13:08:08;93299.75;;;5.80;100.00
21658;BME280;10990;48.174;9.782;2024-02-23T13:10:34;93315.34;;;5.81;100.00
21658;BME280;10990;48.174;9.782;2024-02-23T13:13:00;93332.97;;;5.73;100.00
21658;BME280;10990;48.174;9.782;2024-02-23T13:15:26;93330.72;;;5.84;100.00
21658;BME280;10990;48.174;9.782;2024-02-23T13:17:52;93343.81;;;5.84;100.00
21658;BME280;10990;48.174;9.782;2024-02-23T13:20:18;93338.88;;;5.90;100.00
21658;BME280;10990;48.174;9.782;2024-02-23T13:22:47;93345.28;;;5.87;100.00
21658;BME280;10990;48.174;9.782;2024-02-23T13:25:13;93360.84;;;5.89;100.00
21658;BME280;10990;48.174;9.782;2024-02-23T13:27:39;93361.19;;;5.85;100.00
21658;BME280;10990;48.174;9.782;2024-02-23T13:30:06;93360.97;;;5.95;100.00
21658;BME280;10990;48.174;9.782;2024-02-23T13:32:32;93354.31;;;6.07;100.00
21658;BME280;10990;48.174;9.782;2024-02-23T13:34:58;93348.44;;;6.20;100.00
21658;BME280;10990;48.174;9.782;2024-02-23T13:37:24;93374.38;;;6.00;100.00
21658;BME280;10990;48.174;9.782;2024-02-23T13:39:53;93379.00;;;6.13;100.00
21658;BME280;10990;48.174;9.782;2024-02-23T13:42:19;93383.00;;;6.09;100.00
21658;BME280;10990;48.174;9.782;2024-02-23T13:44:45;93390.44;;;6.20;100.00
21658;BME280;10990;48.174;9.782;2024-02-23T13:47:11;93396.69;;;6.34;100.00
21658;BME280;10990;48.174;9.782;2024-02-23T13:49:37;93417.66;;;6.19;100.00
21658;BME280;10990;48.174;9.782;2024-02-23T13:52:04;93441.91;;;6.21;100.00
21658;BME280;10990;48.174;9.782;2024-02-23T13:54:30;93457.88;;;6.20;100.00
21658;BME280;10990;48.174;9.782;2024-02-23T13:56:58;93490.75;;;6.07;100.00
21658;BME280;10990;48.174;9.782;2024-02-23T13:59:24;93496.47;;;6.11;100.00
21658;BME280;10990;48.174;9.782;2024-02-23T14:01:50;93483.19;;;6.27;100.00
21658;BME280;10990;48.174;9.782;2024-02-23T14:04:17;93508.81;;;6.02;100.00
21658;BME280;10990;48.174;9.782;2024-02-23T14:06:43;93526.50;;;6.09;100.00
21658;BME280;10990;48.174;9.782;2024-02-23T14:09:09;93551.97;;;6.00;100.00
21658;BME280;10990;48.174;9.782;2024-02-23T14:11:35;93565.56;;;6.03;100.00
21658;BME280;10990;48.174;9.782;2024-02-23T14:14:04;93576.41;;;5.92;100.00
21658;BME280;10990;48.174;9.782;2024-02-23T14:16:30;93571.47;;;6.05;100.00
21658;BME280;10990;48.174;9.782;2024-02-23T14:18:56;93574.41;;;6.02;100.00
21658;BME280;10990;48.174;9.782;2024-02-23T14:21:22;93577.53;;;6.06;100.00
21658;BME280;10990;48.174;9.782;2024-02-23T14:23:48;93582.06;;;6.12;100.00
21658;BME280;10990;48.174;9.782;2024-02-23T14:26:14;93586.59;;;5.95;100.00
21658;BME280;10990;48.174;9.782;2024-02-23T14:28:40;93594.44;;;6.03;100.00
21658;BME280;10990;48.174;9.782;2024-02-23T14:31:08;93613.59;;;6.04;100.00